Time;durP1;ratioP1;P1;durP2;ratioP2;P2;SDS_P1;SDS_P2;PMS_P1;PMS_P2;Temp;Humidity;BMP_temperature;BMP_pressure;BME280_temperature;BME280_humidity;BME280_pressure;Samples;Min_cycle;Max_cycle;Signal;HPM_P1;HPM_P2
2021/12/12 00:00:31;;;;;;;126.25;42.58;;;;;;;;;;5012788;28;20053;-70
2021/12/12 00:03:02;;;;;;;120.85;42.25;;;;;;;;;;5012852;28;20137;-69
2021/12/12 00:05:36;;;;;;;124.47;42.40;;;;;;;;;;5012773;28;20108;-69
2021/12/12 00:08:03;;;;;;;116.35;42.83;;;;;;;;;;5012428;28;20048;-69
2021/12/12 00:10:32;;;;;;;108.47;42.58;;;3.90;99.90;;;;;;5011700;28;20061;-68
2021/12/12 00:13:01;;;;;;;120.97;44.83;;;;;;;;;;5012705;28;20125;-69
2021/12/12 00:15:27;;;;;;;134.02;44.40;;;;;;;;;;5012620;28;20050;-69
2021/12/12 00:17:54;;;;;;;127.43;46.10;;;;;;;;;;5012565;28;20046;-69
2021/12/12 00:20:21;;;;;;;;;;;3.80;99.90;;;;;;5013020;28;20046;-69
2021/12/12 00:22:48;;;;;;;124.43;43.42;;;3.70;99.90;;;;;;5012293;28;19932;-68
2021/12/12 00:25:15;;;;;;;121.78;46.70;;;;;;;;;;5012600;28;20053;-68
2021/12/12 00:27:41;;;;;;;130.27;44.83;;;;;;;;;;5012291;28;20568;-69
2021/12/12 00:30:09;;;;;;;127.15;46.30;;;3.90;99.90;;;;;;5012519;28;20133;-68
2021/12/12 00:32:37;;;;;;;117.38;46.30;;;;;;;;;;5012509;28;20128;-69
2021/12/12 00:35:07;;;;;;;127.65;46.63;;;3.70;99.90;;;;;;5012524;28;20105;-69
2021/12/12 00:37:34;;;;;;;113.00;43.92;;;;;;;;;;5010877;28;20487;-69
2021/12/12 00:40:08;;;;;;;112.38;46.05;;;3.60;99.90;;;;;;5012634;28;20066;-68
2021/12/12 00:42:36;;;;;;;117.28;43.20;;;4.00;99.90;;;;;;5012457;28;20054;-69
2021/12/12 00:45:08;;;;;;;115.47;45.25;;;3.90;99.90;;;;;;5012395;28;20048;-68
2021/12/12 00:47:34;;;;;;;126.63;44.40;;;;;;;;;;5012128;28;20501;-69
2021/12/12 00:50:01;;;;;;;102.35;42.63;;;4.10;99.90;;;;;;5012369;28;20081;-69
2021/12/12 00:52:27;;;;;;;109.70;43.20;;;;;;;;;;5010585;28;20069;-68
2021/12/12 00:54:53;;;;;;;115.82;44.17;;;3.90;99.90;;;;;;5012268;28;20447;-69
2021/12/12 00:57:21;;;;;;;109.18;43.88;;;3.60;99.90;;;;;;5012235;28;20097;-69
2021/12/12 00:59:48;;;;;;;118.53;44.03;;;3.80;99.90;;;;;;5012889;28;20046;-68
2021/12/12 01:02:20;;;;;;;104.07;43.03;;;;;;;;;;5014661;28;20065;-68
2021/12/12 01:04:48;;;;;;;111.93;44.83;;;;;;;;;;5015355;28;20057;-68
2021/12/12 01:07:17;;;;;;;110.35;44.53;;;;;;;;;;5015666;28;20133;-68
2021/12/12 01:09:54;;;;;;;105.03;43.85;;;4.00;99.90;;;;;;5014509;28;20046;-67
2021/12/12 01:12:25;;;;;;;104.43;43.75;;;;;;;;;;5030908;28;20154;-67
2021/12/12 01:14:56;;;;;;;105.82;44.42;;;4.30;99.90;;;;;;5014481;28;20042;-67
2021/12/12 01:17:34;;;;;;;106.72;42.88;;;4.20;99.90;;;;;;5014800;28;20414;-67
2021/12/12 01:20:09;;;;;;;122.82;45.13;;;;;;;;;;5015222;28;20061;-68
2021/12/12 01:22:37;;;;;;;110.80;43.83;;;4.00;99.90;;;;;;5015496;28;20093;-68
2021/12/12 01:25:15;;;;;;;112.95;44.65;;;;;;;;;;5015398;28;20085;-67
2021/12/12 01:27:41;;;;;;;109.32;43.95;;;;;;;;;;5014428;28;20395;-67
2021/12/12 01:30:09;;;;;;;118.40;46.33;;;;;;;;;;5015277;28;20085;-68
2021/12/12 01:32:35;;;;;;;116.60;44.75;;;4.10;99.90;;;;;;5015230;28;20156;-67
2021/12/12 01:35:06;;;;;;;126.45;46.95;;;4.00;99.90;;;;;;5013731;28;20110;-67
2021/12/12 01:37:38;;;;;;;118.43;47.30;;;4.20;99.90;;;;;;5015173;28;20085;-68
2021/12/12 01:40:27;;;;;;;124.38;46.08;;;4.10;99.90;;;;;;5015255;28;20061;-68
2021/12/12 01:42:55;;;;;;;109.00;47.15;;;;;;;;;;5014820;28;20060;-67
2021/12/12 01:45:28;;;;;;;124.75;47.20;;;4.30;99.90;;;;;;5014993;28;20050;-67
2021/12/12 01:48:23;;;;;;;137.23;46.88;;;4.10;99.90;;;;;;5013987;28;20054;-67
2021/12/12 01:51:00;;;;;;;138.40;47.63;;;4.00;99.90;;;;;;5014295;28;20136;-68
2021/12/12 01:53:28;;;;;;;137.43;49.47;;;;;;;;;;5014899;28;20054;-68
2021/12/12 01:56:12;;;;;;;116.97;42.33;;;3.90;99.90;;;;;;5014708;28;20054;-67
2021/12/12 01:58:38;;;;;;;144.40;49.75;;;4.20;99.90;;;;;;5014775;28;20041;-68
2021/12/12 02:01:07;;;;;;;138.32;48.13;;;;;;;;;;5014451;28;20528;-68
2021/12/12 02:03:37;;;;;;;130.38;48.30;;;4.60;99.90;;;;;;5014388;28;20057;-66
2021/12/12 02:06:06;;;;;;;130.13;47.95;;;;;;;;;;5014550;28;20129;-68
2021/12/12 02:08:32;;;;;;;129.98;49.38;;;;;;;;;;5013511;28;20104;-67
2021/12/12 02:11:04;;;;;;;144.02;45.97;;;4.50;99.90;;;;;;5014372;28;20092;-67
2021/12/12 02:13:32;;;;;;;125.03;49.17;;;4.40;99.90;;;;;;5014603;28;20057;-67
2021/12/12 02:15:59;;;;;;;138.75;48.38;;;;;;;;;;5014284;28;20046;-67
2021/12/12 02:18:31;;;;;;;136.80;49.22;;;4.20;99.90;;;;;;5014075;28;20046;-68
2021/12/12 02:21:21;;;;;;;125.95;47.75;;;4.30;99.90;;;;;;5014395;28;20057;-67
2021/12/12 02:37:27;;;;;;;132.32;45.88;;;;;;;;;;5014037;28;20072;-67
2021/12/12 02:39:54;;;;;;;114.25;43.58;;;;;;;;;;5014154;28;20069;-68
2021/12/12 02:42:22;;;;;;;128.20;46.78;;;4.60;99.90;;;;;;5013914;28;20042;-68
2021/12/12 02:44:54;;;;;;;132.63;46.65;;;4.70;99.90;;;;;;5013550;28;20528;-70
2021/12/12 02:47:31;;;;;;;113.35;46.70;;;;;;;;;;5013570;28;20411;-70
2021/12/12 02:50:08;;;;;;;123.75;45.97;;;;;;;;;;5012744;28;20128;-68
2021/12/12 02:52:35;;;;;;;110.78;46.03;;;;;;;;;;5013834;28;20050;-67
2021/12/12 02:55:07;;;;;;;142.48;46.42;;;;;;;;;;5013674;28;20050;-67
2021/12/12 02:57:33;;;;;;;105.60;42.15;;;;;;;;;;5013729;28;20397;-67
2021/12/12 02:59:59;;;;;;;119.38;46.35;;;5.00;99.90;;;;;;5013565;28;20723;-68
2021/12/12 03:02:27;;;;;;;133.15;47.83;;;;;;;;;;5013365;28;20049;-68
2021/12/12 03:04:57;;;;;;;139.60;46.05;;;4.90;99.90;;;;;;5013532;28;20129;-68
2021/12/12 03:07:23;;;;;;;119.00;43.72;;;;;;;;;;5013501;28;20038;-68
2021/12/12 03:09:52;;;;;;;121.57;42.90;;;;;;;;;;5013415;28;20042;-67
2021/12/12 03:12:33;;;;;;;126.75;45.60;;;4.80;99.90;;;;;;5013154;28;20387;-68
2021/12/12 03:15:10;;;;;;;112.70;41.47;;;4.90;99.90;;;;;;5013396;28;20046;-68
2021/12/12 03:17:37;;;;;;;108.57;45.00;;;5.10;99.90;;;;;;5013347;28;20045;-68
2021/12/12 03:20:10;;;;;;;115.70;44.45;;;5.10;99.90;;;;;;5013277;28;20107;-68
2021/12/12 03:22:36;;;;;;;131.63;44.25;;;;;;;;;;5012813;28;20387;-68
2021/12/12 03:25:03;;;;;;;119.80;42.97;;;5.40;99.90;;;;;;5012054;28;20050;-70
2021/12/12 03:27:29;;;;;;;119.40;43.63;;;;;;;;;;5012883;28;20486;-68
2021/12/12 03:29:55;;;;;;;104.90;40.97;;;4.90;99.90;;;;;;5012900;28;20104;-70
2021/12/12 03:32:22;;;;;;;113.50;41.42;;;5.00;99.90;;;;;;5011989;28;20049;-67
2021/12/12 03:34:55;;;;;;;103.88;41.28;;;4.90;99.90;;;;;;5012975;28;20050;-67
2021/12/12 03:37:24;;;;;;;112.13;39.05;;;4.90;99.90;;;;;;5013070;28;20196;-67
2021/12/12 03:39:53;;;;;;;83.85;34.10;;;5.20;99.90;;;;;;5012592;28;20058;-67
2021/12/12 03:42:22;;;;;;;96.30;37.05;;;5.10;99.90;;;;;;5013033;28;20401;-66
2021/12/12 03:44:50;;;;;;;90.13;37.65;;;5.20;99.90;;;;;;5012946;28;20049;-68
2021/12/12 03:47:28;;;;;;;93.28;36.45;;;5.40;99.90;;;;;;5011779;28;20042;-67
2021/12/12 03:49:55;;;;;;;92.53;36.45;;;5.20;99.90;;;;;;5013084;28;20438;-68
2021/12/12 03:52:20;;;;;;;85.57;34.45;;;5.50;99.90;;;;;;5013007;28;20103;-68
2021/12/12 03:54:48;;;;;;;72.32;32.72;;;5.10;99.90;;;;;;5012898;28;20049;-68
2021/12/12 03:57:17;;;;;;;78.35;32.00;;;5.20;99.90;;;;;;5012844;28;20108;-67
2021/12/12 03:59:43;;;;;;;77.78;30.90;;;;;;;;;;5012598;28;20050;-69
2021/12/12 04:02:09;;;;;;;74.22;31.48;;;;;;;;;;5012867;28;20049;-69
2021/12/12 04:04:38;;;;;;;79.75;31.13;;;5.40;99.90;;;;;;5012885;28;20137;-67
2021/12/12 04:07:06;;;;;;;68.18;30.00;;;;;;;;;;5012777;28;20084;-67
2021/12/12 04:09:32;;;;;;;68.55;29.77;;;5.30;99.90;;;;;;5012801;28;20461;-69
2021/12/12 04:12:04;;;;;;;70.05;31.98;;;5.60;99.90;;;;;;4995187;28;20158;-68
2021/12/12 04:14:30;;;;;;;73.18;32.95;;;;;;;;;;5012626;28;20052;-67
2021/12/12 04:17:04;;;;;;;68.10;31.65;;;5.50;99.90;;;;;;5012640;28;20054;-68
2021/12/12 04:19:30;;;;;;;72.57;29.85;;;;;;;;;;5012753;28;20050;-67
2021/12/12 04:21:56;;;;;;;66.95;30.80;;;5.20;99.90;;;;;;5012689;28;20049;-68
2021/12/12 04:24:33;;;;;;;60.83;28.27;;;5.30;99.90;;;;;;5012703;28;20053;-68
2021/12/12 04:26:59;;;;;;;54.67;27.48;;;;;;;;;;5012694;28;20078;-67
2021/12/12 04:29:28;;;;;;;;;;;;;;;;;;5012780;28;20050;-67
2021/12/12 04:31:57;;;;;;;51.53;25.92;;;5.30;99.90;;;;;;5012875;28;19944;-68
2021/12/12 04:34:26;;;;;;;51.15;25.63;;;5.30;99.90;;;;;;5012324;28;20487;-68
2021/12/12 04:36:53;;;;;;;52.67;25.67;;;5.40;99.90;;;;;;5016209;28;20050;-67
2021/12/12 04:39:25;;;;;;;50.55;24.58;;;;;;;;;;5014592;28;20529;-67
2021/12/12 04:41:59;;;;;;;50.67;24.08;;;5.50;99.90;;;;;;5016359;28;20081;-69
2021/12/12 04:44:30;;;;;;;43.38;24.73;;;5.60;99.90;;;;;;5014916;28;20054;-68
2021/12/12 04:50:17;;;;;;;47.13;23.75;;;5.40;99.90;;;;;;5015224;28;20141;-68
2021/12/12 04:53:03;;;;;;;44.28;22.52;;;5.40;99.90;;;;;;5016046;28;20045;-68
2021/12/12 04:55:39;;;;;;;42.58;22.10;;;;;;;;;;5015970;28;20057;-66
2021/12/12 04:58:11;;;;;;;40.83;21.38;;;;;;;;;;5015941;28;20509;-69
2021/12/12 05:00:46;;;;;;;37.97;23.00;;;5.50;99.90;;;;;;5015935;28;20053;-67
2021/12/12 05:03:31;;;;;;;38.25;22.23;;;5.60;99.90;;;;;;5015949;28;20058;-66
2021/12/12 05:06:07;;;;;;;37.15;22.23;;;5.60;99.90;;;;;;5014670;28;20058;-67
2021/12/12 05:08:52;;;;;;;40.58;21.92;;;5.40;99.90;;;;;;5015844;28;20053;-68
2021/12/12 05:11:26;;;;;;;36.17;22.23;;;5.50;99.90;;;;;;5015689;28;20100;-68
2021/12/12 05:14:00;;;;;;;36.72;21.75;;;5.70;99.90;;;;;;5014660;28;20045;-67
2021/12/12 05:16:34;;;;;;;42.10;23.25;;;5.80;99.90;;;;;;5015597;28;20430;-67
2021/12/12 05:19:14;;;;;;;39.80;23.63;;;5.80;99.90;;;;;;5015625;28;20038;-68
2021/12/12 05:21:42;;;;;;;41.13;23.52;;;;;;;;;;5014032;28;20490;-66
2021/12/12 05:24:11;;;;;;;40.58;24.10;;;5.50;99.90;;;;;;5014228;28;20498;-69
2021/12/12 05:26:41;;;;;;;41.15;23.10;;;;;;;;;;5015158;28;20103;-67
2021/12/12 05:29:14;;;;;;;45.38;24.23;;;5.70;99.90;;;;;;5015349;28;20112;-69
2021/12/12 05:31:45;;;;;;;41.58;22.50;;;5.70;99.90;;;;;;5015407;28;20046;-66
2021/12/12 05:34:11;;;;;;;46.97;25.80;;;5.80;99.90;;;;;;5015323;28;20085;-66
2021/12/12 05:36:37;;;;;;;44.92;24.92;;;5.80;99.90;;;;;;5015226;28;20104;-67
2021/12/12 05:39:05;;;;;;;50.60;24.90;;;5.70;99.90;;;;;;5015184;28;20108;-66
2021/12/12 05:41:32;;;;;;;45.42;24.38;;;5.70;99.90;;;;;;5014872;28;20131;-70
2021/12/12 05:43:59;;;;;;;50.00;27.08;;;5.60;99.90;;;;;;5015018;28;20046;-67
2021/12/12 05:46:26;;;;;;;62.17;27.67;;;5.80;99.90;;;;;;5014599;28;20050;-67
2021/12/12 05:48:53;;;;;;;;;;;;;;;;;;5015438;28;20052;-68
2021/12/12 05:51:20;;;;;;;63.10;25.58;;;5.80;99.90;;;;;;5014971;28;19925;-66
2021/12/12 05:53:46;;;;;;;54.90;27.00;;;;;;;;;;5014838;28;20050;-66
2021/12/12 05:56:13;;;;;;;62.40;29.42;;;;;;;;;;5014535;28;20050;-66
2021/12/12 05:58:39;;;;;;;51.97;27.90;;;5.70;99.90;;;;;;5014871;28;20211;-67
2021/12/12 06:01:08;;;;;;;59.33;30.73;;;;;;;;;;5014767;28;20110;-66
2021/12/12 06:03:37;;;;;;;58.28;28.10;;;;;;;;;;5014692;28;20050;-67
2021/12/12 06:06:05;;;;;;;59.20;28.10;;;;;;;;;;5014652;28;20053;-68
2021/12/12 06:08:33;;;;;;;60.47;29.50;;;6.00;99.90;;;;;;5014571;28;20053;-66
2021/12/12 06:11:00;;;;;;;60.78;28.83;;;6.00;99.90;;;;;;5014262;28;20045;-66
2021/12/12 06:13:27;;;;;;;62.67;28.13;;;5.90;99.90;;;;;;5014538;28;20060;-67
2021/12/12 06:15:55;;;;;;;62.03;28.58;;;6.30;99.90;;;;;;5014445;28;20129;-66
2021/12/12 06:18:23;;;;;;;59.83;28.85;;;6.40;99.90;;;;;;5014416;28;20053;-66
2021/12/12 06:20:49;;;;;;;61.85;28.85;;;;;;;;;;5014337;28;20045;-66
2021/12/12 06:23:16;;;;;;;50.97;26.08;;;6.00;99.90;;;;;;5013361;28;20046;-66
2021/12/12 06:25:42;;;;;;;54.10;28.27;;;;;;;;;;5014074;28;20041;-67
2021/12/12 06:28:10;;;;;;;50.53;25.98;;;;;;;;;;5014216;28;20049;-66
2021/12/12 06:30:36;;;;;;;48.45;25.38;;;6.20;99.90;;;;;;5013866;28;20557;-66
2021/12/12 06:33:01;;;;;;;54.90;27.05;;;5.90;99.90;;;;;;4996872;28;20137;-66
2021/12/12 06:35:27;;;;;;;64.22;30.35;;;6.00;99.90;;;;;;5014086;28;20049;-68
2021/12/12 06:37:53;;;;;;;60.28;29.00;;;6.00;99.90;;;;;;5013821;28;20038;-66
2021/12/12 06:40:21;;;;;;;58.17;26.70;;;6.00;99.90;;;;;;5013841;28;20058;-68
2021/12/12 06:42:48;;;;;;;60.83;28.58;;;6.00;99.90;;;;;;5013961;28;20057;-67
2021/12/12 06:45:15;;;;;;;67.93;28.15;;;6.10;99.90;;;;;;5013968;28;20128;-67
2021/12/12 06:47:41;;;;;;;68.20;28.65;;;5.70;99.90;;;;;;5012802;28;20486;-66
2021/12/12 06:50:07;;;;;;;;;;;5.80;99.90;;;;;;5014302;28;20054;-66
2021/12/12 06:52:34;;;;;;;72.95;30.77;;;;;;;;;;5013819;28;19932;-68
2021/12/12 06:55:00;;;;;;;80.53;30.55;;;6.00;99.90;;;;;;5013734;28;20474;-67
2021/12/12 06:57:27;;;;;;;;;;;6.00;99.90;;;;;;5013586;28;20087;-66
2021/12/12 06:59:53;;;;;;;78.95;31.02;;;6.20;99.90;;;;;;5013961;28;20337;-69
2021/12/12 07:02:21;;;;;;;78.63;31.88;;;6.10;99.90;;;;;;5013680;28;20045;-68
2021/12/12 07:04:49;;;;;;;77.03;31.75;;;6.20;99.90;;;;;;5013295;28;20445;-65
2021/12/12 07:07:17;;;;;;;86.90;33.38;;;6.20;99.90;;;;;;5013325;28;20121;-66
2021/12/12 07:09:44;;;;;;;95.00;34.67;;;6.20;99.90;;;;;;5013461;28;20046;-68
2021/12/12 07:12:13;;;;;;;85.53;33.95;;;6.30;99.90;;;;;;5013479;28;20056;-67
2021/12/12 07:14:40;;;;;;;95.40;36.17;;;6.30;99.90;;;;;;5013469;28;20046;-67
2021/12/12 07:17:07;;;;;;;93.38;34.90;;;6.20;99.90;;;;;;5013376;28;20390;-66
2021/12/12 07:19:36;;;;;;;109.05;35.30;;;6.40;99.90;;;;;;5013410;28;20046;-67
2021/12/12 07:22:02;;;;;;;89.53;34.83;;;6.00;99.90;;;;;;5013043;28;20046;-66
2021/12/12 07:24:30;;;;;;;105.68;34.80;;;6.50;99.90;;;;;;5013331;28;20053;-69
2021/12/12 07:26:58;;;;;;;100.35;34.83;;;6.50;99.90;;;;;;5013098;28;20474;-65
2021/12/12 07:29:24;;;;;;;110.40;34.67;;;;;;;;;;5013213;28;20050;-67
2021/12/12 07:31:50;;;;;;;101.05;35.83;;;6.60;99.90;;;;;;5012251;28;20434;-66
2021/12/12 07:34:16;;;;;;;;;;;6.50;99.90;;;;;;5027858;28;20052;-66
2021/12/12 07:36:44;;;;;;;106.57;34.03;;;;;;;;;;5026442;28;19921;-66
2021/12/12 07:39:13;;;;;;;101.57;35.75;;;6.50;99.90;;;;;;5047795;28;20139;-69
2021/12/12 07:41:40;;;;;;;101.72;35.15;;;6.60;99.90;;;;;;5047428;28;20052;-66
2021/12/12 07:44:09;;;;;;;106.20;34.88;;;6.70;99.90;;;;;;5047818;28;20060;-65
2021/12/12 07:46:36;;;;;;;113.25;36.20;;;;;;;;;;5048124;28;20163;-66
2021/12/12 07:49:02;;;;;;;122.60;36.75;;;6.60;99.90;;;;;;5043101;28;20560;-66
2021/12/12 07:51:29;;;;;;;112.88;36.53;;;6.70;99.90;;;;;;5047852;28;20041;-68
2021/12/12 07:53:57;;;;;;;129.80;36.45;;;7.00;99.90;;;;;;5049472;28;20107;-66
2021/12/12 07:56:24;;;;;;;119.25;35.03;;;;;;;;;;5039754;28;20046;-77
2021/12/12 07:58:50;;;;;;;144.57;38.33;;;6.80;99.90;;;;;;5014215;28;20053;-64
2021/12/12 08:01:16;;;;;;;121.70;35.13;;;6.80;99.90;;;;;;5013537;28;20093;-64
2021/12/12 08:03:43;;;;;;;139.60;38.05;;;;;;;;;;5017816;28;20077;-64
2021/12/12 08:06:11;;;;;;;119.78;34.40;;;7.20;99.90;;;;;;5031975;28;20438;-64
2021/12/12 08:08:39;;;;;;;129.27;37.08;;;6.90;99.90;;;;;;5032706;28;20092;-63
2021/12/12 08:11:05;;;;;;;141.45;36.90;;;6.90;99.90;;;;;;5036247;28;20147;-63
2021/12/12 08:13:32;;;;;;;128.40;37.22;;;6.90;99.90;;;;;;5033180;28;20080;-65
2021/12/12 08:16:00;;;;;;;125.28;35.00;;;6.90;99.90;;;;;;5035296;28;20389;-65
2021/12/12 08:18:27;;;;;;;121.53;34.40;;;7.20;99.90;;;;;;5036435;28;20081;-65
2021/12/12 08:20:54;;;;;;;133.55;34.35;;;6.90;99.90;;;;;;5036131;28;20047;-64
2021/12/12 08:23:22;;;;;;;131.00;34.97;;;7.00;99.90;;;;;;5036361;28;20045;-64
2021/12/12 08:25:50;;;;;;;148.13;38.55;;;7.00;99.90;;;;;;5036279;28;20083;-65
2021/12/12 08:28:18;;;;;;;133.57;36.75;;;7.30;99.90;;;;;;5018736;28;20456;-65
2021/12/12 08:30:44;;;;;;;122.22;36.97;;;;;;;;;;5034973;28;20502;-66
2021/12/12 08:33:11;;;;;;;132.52;35.92;;;7.00;99.90;;;;;;5036257;28;20050;-65
2021/12/12 08:35:37;;;;;;;138.25;37.03;;;7.00;99.90;;;;;;5035827;28;20054;-65
2021/12/12 08:38:04;;;;;;;;;;;7.10;99.90;;;;;;5036307;28;20058;-65
2021/12/12 08:40:36;;;;;;;143.70;36.58;;;7.20;99.90;;;;;;5036132;28;19920;-65
2021/12/12 08:43:09;;;;;;;149.18;35.70;;;6.90;99.90;;;;;;5036022;28;20045;-65
2021/12/12 08:45:39;;;;;;;151.15;38.55;;;7.00;99.90;;;;;;5034993;28;20379;-65
2021/12/12 08:48:05;;;;;;;143.07;36.30;;;7.00;99.90;;;;;;5035938;28;20460;-65
2021/12/12 08:50:35;;;;;;;154.70;38.22;;;6.80;99.90;;;;;;5035551;28;20132;-66
2021/12/12 08:53:03;;;;;;;153.15;37.83;;;6.90;99.90;;;;;;5035782;28;20049;-65
2021/12/12 08:55:35;;;;;;;139.98;36.15;;;7.10;99.90;;;;;;5035782;28;20128;-67
2021/12/12 08:58:14;;;;;;;154.57;37.08;;;7.00;99.90;;;;;;5035788;28;20462;-65
2021/12/12 09:01:03;;;;;;;151.27;35.47;;;7.20;99.90;;;;;;5035468;28;20347;-66
2021/12/12 09:03:38;;;;;;;146.93;35.15;;;6.90;99.90;;;;;;5035323;28;20111;-66
2021/12/12 09:06:05;;;;;;;155.00;35.75;;;7.10;99.90;;;;;;5035510;28;20052;-65
2021/12/12 09:08:43;;;;;;;142.50;34.92;;;6.90;99.90;;;;;;5035524;28;20481;-65
2021/12/12 09:11:17;;;;;;;157.00;35.97;;;6.80;99.90;;;;;;5035546;28;20056;-65
2021/12/12 09:13:55;;;;;;;163.50;37.28;;;6.90;99.90;;;;;;5035698;28;20103;-65
2021/12/12 09:16:35;;;;;;;159.55;37.00;;;;;;;;;;5032009;28;20048;-66
2021/12/12 09:19:06;;;;;;;164.07;36.05;;;6.80;99.90;;;;;;5020532;28;20053;-65
2021/12/12 09:22:07;;;;;;;174.95;37.35;;;7.20;99.90;;;;;;5014757;28;20042;-66
2021/12/12 09:25:04;;;;;;;184.80;38.78;;;7.20;99.90;;;;;;5015504;28;20489;-66
2021/12/12 09:27:38;;;;;;;167.85;38.80;;;7.10;99.90;;;;;;5014699;28;20061;-66
2021/12/12 09:30:04;;;;;;;174.93;37.72;;;;;;;;;;5015351;28;20046;-68
2021/12/12 09:32:39;;;;;;;194.57;38.13;;;;;;;;;;5015101;28;20050;-68
2021/12/12 09:35:23;;;;;;;215.60;39.47;;;7.10;99.90;;;;;;5015209;28;20144;-67
2021/12/12 09:38:02;;;;;;;225.65;39.40;;;7.00;99.90;;;;;;5014967;28;20623;-65
2021/12/12 09:40:27;;;;;;;216.30;39.88;;;7.10;99.90;;;;;;5015458;28;20049;-65
2021/12/12 09:43:11;;;;;;;229.43;41.17;;;7.10;99.90;;;;;;5015109;28;20045;-65
2021/12/12 09:45:37;;;;;;;225.40;40.00;;;7.30;99.90;;;;;;5015112;28;20049;-65
2021/12/12 09:48:25;;;;;;;238.45;40.13;;;;;;;;;;5014758;28;20386;-65
2021/12/12 09:51:16;;;;;;;208.38;39.92;;;7.30;99.90;;;;;;5014780;28;20399;-65
2021/12/12 09:53:52;;;;;;;235.63;39.88;;;;;;;;;;5014913;28;20049;-66
2021/12/12 09:56:41;;;;;;;257.80;41.92;;;7.20;99.90;;;;;;5014836;28;20046;-65
2021/12/12 09:59:20;;;;;;;249.15;43.47;;;7.50;99.90;;;;;;5013612;28;20570;-64
2021/12/12 10:02:07;;;;;;;234.13;41.60;;;7.40;99.90;;;;;;5014529;28;20367;-65
2021/12/12 10:04:57;;;;;;;271.73;42.15;;;7.70;99.90;;;;;;5014796;28;20096;-65
2021/12/12 10:07:52;;;;;;;250.68;41.22;;;7.30;99.90;;;;;;5036731;28;20062;-65
2021/12/12 10:10:40;;;;;;;251.75;42.08;;;7.40;99.90;;;;;;5050254;28;20056;-65
2021/12/12 10:13:27;;;;;;;255.15;39.47;;;7.40;99.90;;;;;;5046601;28;20045;-65
2021/12/12 10:16:01;;;;;;;262.67;42.75;;;7.30;99.90;;;;;;5047406;28;20623;-65
2021/12/12 10:18:50;;;;;;;260.60;41.42;;;7.70;99.90;;;;;;5043874;28;20084;-65
2021/12/12 10:22:06;;;;;;;225.00;39.67;;;7.60;99.90;;;;;;5049054;28;20045;-65
2021/12/12 10:24:40;;;;;;;255.88;42.08;;;;;;;;;;5034390;28;20057;-65
2021/12/12 10:27:40;;;;;;;245.40;40.25;;;7.70;99.90;;;;;;5046087;28;20148;-65
2021/12/12 10:30:22;;;;;;;245.25;42.63;;;7.90;99.90;;;;;;5030518;28;20079;-65
2021/12/12 10:32:52;;;;;;;233.85;40.80;;;7.70;99.90;;;;;;5048197;28;20071;-66
2021/12/12 10:35:27;;;;;;;253.57;41.33;;;7.90;99.90;;;;;;5048257;28;20048;-65
2021/12/12 10:37:55;;;;;;;273.00;41.58;;;7.70;99.90;;;;;;5022076;28;20559;-65
2021/12/12 10:40:29;;;;;;;268.63;41.80;;;8.10;99.90;;;;;;5033273;28;20049;-65
2021/12/12 10:43:00;;;;;;;250.80;40.15;;;7.80;99.90;;;;;;5033816;28;20136;-67
2021/12/12 10:45:33;;;;;;;245.65;41.05;;;8.00;99.90;;;;;;5033442;28;20053;-66
2021/12/12 10:48:01;;;;;;;211.57;38.50;;;7.60;99.90;;;;;;5033719;28;20054;-65
2021/12/12 10:50:48;;;;;;;239.13;40.13;;;7.60;99.90;;;;;;5032349;28;20053;-66
2021/12/12 10:53:20;;;;;;;247.20;39.83;;;8.10;99.90;;;;;;5033580;28;20391;-65
2021/12/12 10:55:54;;;;;;;231.70;37.35;;;7.50;99.90;;;;;;5033576;28;20049;-65
2021/12/12 10:58:28;;;;;;;218.38;39.85;;;8.10;99.90;;;;;;5032212;28;20858;-65
2021/12/12 11:01:02;;;;;;;220.00;38.75;;;8.00;99.90;;;;;;5033224;28;20052;-65
2021/12/12 11:03:52;;;;;;;205.95;36.88;;;8.50;99.90;;;;;;5033451;28;20056;-65
2021/12/12 11:06:31;;;;;;;176.13;34.60;;;8.20;99.90;;;;;;5033045;28;20481;-65
2021/12/12 11:09:14;;;;;;;196.02;33.92;;;8.00;99.90;;;;;;5033327;28;20049;-65
2021/12/12 11:11:47;;;;;;;171.55;33.35;;;8.50;99.90;;;;;;5033375;28;20045;-65
2021/12/12 11:14:21;;;;;;;167.95;34.00;;;8.10;99.90;;;;;;5033005;28;20048;-65
2021/12/12 11:16:54;;;;;;;155.73;32.10;;;8.20;99.90;;;;;;5025266;28;20121;-66
2021/12/12 11:19:29;;;;;;;154.10;32.17;;;8.40;99.90;;;;;;5036310;28;20413;-65
2021/12/12 11:22:15;;;;;;;134.57;30.42;;;;;;;;;;5021535;28;20049;-65
2021/12/12 11:24:50;;;;;;;130.10;28.40;;;8.30;99.90;;;;;;5034296;28;20093;-68
2021/12/12 11:27:23;;;;;;;143.93;30.58;;;8.10;99.90;;;;;;5018960;28;20133;-67
2021/12/12 11:29:56;;;;;;;147.35;29.83;;;8.40;99.90;;;;;;5015120;28;20092;-65
2021/12/12 11:32:27;;;;;;;130.43;30.35;;;8.40;99.90;;;;;;5024451;28;20121;-66
2021/12/12 11:34:56;;;;;;;131.50;28.17;;;8.70;99.90;;;;;;5021655;28;20451;-66
2021/12/12 11:37:42;;;;;;;125.03;28.38;;;8.70;99.90;;;;;;5022990;28;20058;-66
2021/12/12 11:40:20;;;;;;;108.45;27.38;;;8.70;99.90;;;;;;5024260;28;20065;-65
2021/12/12 11:43:17;;;;;;;93.93;24.73;;;8.80;99.90;;;;;;5024425;28;20498;-67
2021/12/12 11:46:18;;;;;;;108.40;25.93;;;9.00;99.90;;;;;;5018762;28;20405;-65
2021/12/12 11:48:59;;;;;;;101.93;23.83;;;8.80;99.90;;;;;;5018210;28;20273;-65
2021/12/12 11:51:33;;;;;;;80.53;23.25;;;9.00;99.90;;;;;;5013569;28;20475;-66
2021/12/12 11:54:17;;;;;;;74.07;20.83;;;8.90;99.90;;;;;;5021763;28;20088;-65
2021/12/12 11:56:49;;;;;;;96.20;22.50;;;9.30;99.90;;;;;;5022660;28;20041;-65
2021/12/12 11:59:25;;;;;;;73.97;21.17;;;9.10;99.90;;;;;;5021985;28;20046;-65
2021/12/12 12:02:00;;;;;;;86.47;21.50;;;9.20;99.90;;;;;;5018148;28;20048;-65
2021/12/12 12:04:38;;;;;;;78.97;20.85;;;8.80;99.90;;;;;;5012912;28;20277;-65
2021/12/12 12:07:10;;;;;;;86.60;20.83;;;;;;;;;;5013098;28;20125;-65
2021/12/12 12:10:00;;;;;;;94.25;22.45;;;8.80;99.90;;;;;;5012823;28;20081;-65
2021/12/12 12:12:52;;;;;;;83.55;20.75;;;9.20;99.90;;;;;;5012935;28;20138;-66
2021/12/12 12:15:49;;;;;;;73.90;20.23;;;9.10;99.90;;;;;;5009703;28;20058;-65
2021/12/12 12:18:42;;;;;;;93.80;21.92;;;9.10;99.90;;;;;;5012801;28;20046;-65
2021/12/12 12:21:32;;;;;;;82.00;19.92;;;9.00;99.90;;;;;;5012503;28;20572;-65
2021/12/12 12:24:26;;;;;;;111.93;23.05;;;9.00;99.90;;;;;;5012798;28;20375;-65
2021/12/12 12:27:08;;;;;;;87.32;21.90;;;9.10;99.90;;;;;;5012595;28;20049;-68
2021/12/12 12:30:31;;;;;;;84.43;20.92;;;9.20;99.90;;;;;;5012809;28;20042;-65
2021/12/12 12:33:48;;;;;;;84.80;20.13;;;9.20;99.90;;;;;;5012551;28;20107;-65
2021/12/12 12:36:51;;;;;;;110.30;22.20;;;9.30;99.90;;;;;;5012390;28;20049;-65
2021/12/12 12:39:55;;;;;;;93.05;21.30;;;9.00;99.90;;;;;;5012583;28;20065;-67
2021/12/12 12:42:49;;;;;;;101.70;21.63;;;9.10;99.90;;;;;;5012128;28;20147;-65
2021/12/12 12:45:37;;;;;;;96.93;21.50;;;8.80;99.90;;;;;;5012512;28;20053;-65
2021/12/12 12:48:36;;;;;;;84.38;22.00;;;9.00;99.90;;;;;;5012484;28;20104;-66
2021/12/12 12:51:17;;;;;;;96.35;21.65;;;9.20;99.90;;;;;;5012473;28;20085;-67
2021/12/12 12:54:01;;;;;;;85.15;20.02;;;9.00;99.90;;;;;;5012498;28;20144;-65
2021/12/12 12:56:45;;;;;;;84.63;20.38;;;9.20;99.90;;;;;;5013707;28;20064;-68
2021/12/12 12:59:38;;;;;;;81.57;19.90;;;8.70;99.90;;;;;;5016008;28;20048;-65
2021/12/12 13:02:19;;;;;;;94.38;21.20;;;8.80;99.90;;;;;;5016576;28;20098;-66
2021/12/12 13:05:00;;;;;;;93.80;21.35;;;8.60;99.90;;;;;;5015892;28;20042;-65
2021/12/12 13:07:40;;;;;;;93.80;21.65;;;8.90;99.90;;;;;;5015792;28;20042;-65
2021/12/12 13:10:22;;;;;;;89.22;20.83;;;9.00;99.90;;;;;;5015544;28;20048;-65
2021/12/12 13:12:56;;;;;;;87.85;20.90;;;9.00;99.90;;;;;;5015737;28;20050;-65
2021/12/12 13:15:25;;;;;;;80.18;19.77;;;9.20;99.90;;;;;;5015717;28;20089;-65
2021/12/12 13:18:28;;;;;;;73.00;19.80;;;10.40;99.90;;;;;;5021618;28;20046;-65
2021/12/12 13:21:03;;;;;;;64.80;19.13;;;8.90;99.90;;;;;;5028067;28;20072;-65
2021/12/12 13:23:54;;;;;;;75.00;19.20;;;8.80;99.90;;;;;;5034636;28;20053;-65
2021/12/12 13:26:45;;;;;;;72.82;19.17;;;;;;;;;;5034984;28;20045;-65
2021/12/12 13:29:50;;;;;;;90.68;20.50;;;9.10;99.90;;;;;;5035004;28;20060;-65
2021/12/12 13:32:35;;;;;;;76.07;18.77;;;9.30;99.90;;;;;;5035128;28;20056;-65
2021/12/12 13:35:30;;;;;;;80.53;19.45;;;9.20;99.90;;;;;;5015435;28;20046;-65
2021/12/12 13:38:11;;;;;;;91.22;20.17;;;9.40;99.90;;;;;;4978483;28;20140;-65
2021/12/12 13:40:43;;;;;;;96.30;19.98;;;9.00;99.90;;;;;;5014809;28;20065;-65
2021/12/12 13:43:13;;;;;;;88.38;19.73;;;9.50;99.90;;;;;;5015161;28;20045;-65
2021/12/12 13:45:58;;;;;;;88.50;20.17;;;9.90;99.90;;;;;;5015198;28;20054;-65